Bletchingley, United Kingdom
Current Conditions -  °F | °C
As of 6:50 PM on Tuesday 21 Oct 2014 (Local Time) from EGKK Reporting Station
Few Clouds Few Clouds  
Wind Chill: 52°   Ceiling: Unl
Heat Index: 52°   Visibility: 6mi
Dew Point: 36°   Wind: 25mph
Humidity: 54%   Direction: 300°WNW
Pressure: 29.94"   Gusts: NA
Location:  51.24°N, 0.1°W
Report Text: EGKK 211750Z 30022KT 9999 FEW044 11/02 Q1014
Loading
Personal Weather Stations






























Interactive Weather Map
Tropical Storm Tracking
New forecast layout! Learn more

10-Day Weather Forecast

Advertisements
Track Severe Weather on mobile